createdAt,value
2019-03-01T00:00:05.990Z,61.7
2019-03-01T00:15:06.037Z,64
2019-03-01T00:30:06.078Z,64.5
2019-03-01T00:45:06.099Z,64.5
2019-03-01T01:17:15.487Z,65.1
2019-03-01T01:32:18.746Z,63.6
2019-03-01T01:45:05.450Z,64.8
2019-03-01T02:00:05.456Z,64.2
2019-03-01T02:17:15.971Z,62.6
2019-03-01T02:45:05.590Z,61.9
2019-03-01T03:00:05.648Z,62.9
2019-03-01T03:15:05.692Z,62.8
2019-03-01T03:30:05.750Z,62.9
2019-03-01T03:47:16.555Z,63.5
2019-03-01T04:04:26.580Z,63
2019-03-01T04:17:16.753Z,63.7
2019-03-01T04:30:05.945Z,64.3
2019-03-01T04:49:27.924Z,64.3
2019-03-01T05:00:05.918Z,68.4
2019-03-01T05:17:17.125Z,70
2019-03-01T05:32:16.262Z,72.7
2019-03-01T05:47:15.265Z,76.3
2019-03-01T06:02:16.376Z,75.9
2019-03-01T06:15:06.302Z,76.6
2019-03-01T06:32:16.639Z,75.9
2019-03-01T06:47:19.784Z,77.5
2019-03-01T07:02:20.891Z,76.8
2019-03-01T07:15:10.937Z,75.5
2019-03-01T07:30:10.962Z,75
2019-03-01T07:45:10.967Z,77.1
2019-03-01T08:15:11.153Z,78.7
2019-03-01T08:30:11.577Z,78.6
2019-03-01T08:45:11.139Z,78.3
2019-03-01T09:00:11.222Z,78.2
2019-03-01T09:15:11.215Z,79
2019-03-01T09:32:21.820Z,78.5
2019-03-01T09:45:14.466Z,77.9
2019-03-01T10:00:11.366Z,80
2019-03-01T10:17:21.097Z,80.8
2019-03-01T10:30:11.455Z,80.3
2019-03-01T10:45:11.476Z,79.9
2019-03-01T11:00:11.551Z,79.9
2019-03-01T11:19:32.443Z,80.1
2019-03-01T11:32:22.611Z,80.9
2019-03-01T11:45:11.555Z,79.7
2019-03-01T12:02:22.783Z,78.5
2019-03-01T12:17:21.972Z,78.7
2019-03-01T12:32:20.924Z,80.7
2019-03-01T12:45:11.782Z,80
2019-03-01T13:02:21.126Z,79.9
2019-03-01T13:15:14.744Z,78.4
2019-03-01T13:30:11.873Z,78.7
2019-03-01T13:47:22.430Z,78.9
2019-03-01T14:00:11.973Z,79
2019-03-01T14:17:25.715Z,79.6
2019-03-01T14:30:12.020Z,80.8
2019-03-01T14:47:22.827Z,80.8
2019-03-01T15:02:21.897Z,81.8
2019-03-01T15:15:12.128Z,81.8
2019-03-01T15:30:12.224Z,82
2019-03-01T15:45:12.237Z,82.6
2019-03-01T16:02:22.763Z,83.2
2019-03-01T16:19:34.380Z,83.7
2019-03-01T16:30:18.433Z,84
2019-03-01T16:47:23.471Z,83.1
2019-03-01T17:02:22.722Z,82.2
2019-03-01T17:15:05.675Z,83
2019-03-01T17:32:16.710Z,82.5
2019-03-01T17:45:05.887Z,83
2019-03-01T18:00:05.744Z,83.6
2019-03-01T18:19:27.662Z,85.6
2019-03-01T18:34:26.011Z,84.8
2019-03-01T18:47:16.406Z,85.2
2019-03-01T19:00:05.877Z,85.6
2019-03-01T19:15:05.994Z,85.2
2019-03-01T19:34:26.451Z,84.2
2019-03-01T19:45:06.467Z,83.2
2019-03-01T20:00:06.358Z,83.5
2019-03-01T20:15:10.590Z,85
2019-03-01T20:32:16.686Z,85.7
2019-03-01T20:47:19.423Z,85.1
2019-03-01T21:00:06.195Z,85.7
2019-03-01T21:19:28.009Z,85.9
2019-03-01T21:34:27.124Z,86.3
2019-03-01T21:45:06.368Z,86.7
2019-03-01T22:02:17.730Z,87.4
2019-03-01T22:15:06.488Z,87.1
2019-03-01T22:32:16.634Z,86.6
2019-03-01T22:47:15.675Z,86.8
2019-03-01T23:00:07.950Z,87.6
2019-03-01T23:15:08.316Z,87.4
2019-03-01T23:30:06.527Z,87.6
2019-03-01T23:45:06.622Z,85.7
